Time;durP1;ratioP1;P1;durP2;ratioP2;P2;SDS_P1;SDS_P2;PMS_P1;PMS_P2;Temp;Humidity;BMP_temperature;BMP_pressure;BME280_temperature;BME280_humidity;BME280_pressure;Samples;Min_cycle;Max_cycle;Signal;HPM_P1;HPM_P2
2021/04/17 00:01:40;;;;;;;13.37;4.97;;;;;;;4.95;87.31;101116.52;5040828;57;1138827;-71
2021/04/17 00:07:07;;;;;;;19.62;7.45;;;;;;;4.90;87.07;101115.86;5041233;57;1136853;-72
2021/04/17 00:12:32;;;;;;;24.97;8.93;;;;;;;4.94;86.86;101113.95;5040674;57;1138631;-72
2021/04/17 00:17:57;;;;;;;34.27;9.30;;;;;;;4.97;86.99;101106.42;5040155;57;1138865;-71
2021/04/17 00:23:22;;;;;;;17.13;6.03;;;;;;;5.03;87.43;101100.45;5040730;57;1138647;-71
2021/04/17 00:28:48;;;;;;;21.20;7.63;;;;;;;4.98;86.76;101102.42;5040908;57;1136668;-72
2021/04/17 00:34:13;;;;;;;29.30;9.47;;;;;;;4.97;86.72;101103.80;5040619;57;1138584;-72
2021/04/17 00:39:39;;;;;;;12.53;5.27;;;;;;;4.99;86.78;101096.72;5041085;57;1138533;-72
2021/04/17 00:45:07;;;;;;;14.38;4.50;;;;;;;4.92;86.64;101090.44;4992044;57;1136430;-72
2021/04/17 00:50:33;;;;;;;42.17;11.10;;;;;;;4.82;86.41;101086.99;4985142;58;1136422;-72
2021/04/17 00:55:58;;;;;;;14.10;4.67;;;;;;;4.75;86.62;101082.93;4984977;58;1150071;-72
2021/04/17 01:01:24;;;;;;;21.57;6.20;;;;;;;4.72;86.92;101098.81;4985064;58;1136669;-71
2021/04/17 01:07:06;;;;;;;23.50;7.77;;;;;;;4.72;87.07;101100.12;4985025;58;1136440;-73
2021/04/17 01:12:36;;;;;;;24.87;7.43;;;;;;;4.74;87.09;101104.35;4984633;57;1138683;-72
2021/04/17 01:18:03;;;;;;;17.10;6.20;;;;;;;4.83;87.09;101101.80;4984677;58;1148463;-72
2021/04/17 01:23:41;;;;;;;12.87;5.40;;;;;;;4.90;87.37;101106.69;4984876;58;1139234;-72
2021/04/17 01:29:07;;;;;;;25.50;7.33;;;;;;;4.88;86.93;101086.73;4984765;58;1136420;-72
2021/04/17 01:34:33;;;;;;;14.20;4.87;;;;;;;4.84;86.76;101087.32;4984605;58;1138722;-71
2021/04/17 01:39:58;;;;;;;13.30;5.93;;;;;;;4.88;86.77;101081.03;4985085;58;1138597;-72
2021/04/17 01:45:26;;;;;;;13.17;4.70;;;;;;;4.83;86.74;101082.15;4984605;57;1138749;-72
2021/04/17 01:50:54;;;;;;;20.20;6.07;;;;;;;4.75;86.73;101070.69;4984852;58;1136435;-72
2021/04/17 01:56:21;;;;;;;24.10;6.67;;;;;;;4.78;87.08;101074.48;4984755;58;1138279;-72
2021/04/17 02:01:48;;;;;;;18.53;7.07;;;;;;;4.79;86.65;101069.63;4955919;58;1138349;-72
2021/04/17 02:07:13;;;;;;;19.60;5.70;;;;;;;4.77;86.71;101075.40;4985495;58;1138516;-72
2021/04/17 02:12:39;;;;;;;18.40;6.57;;;;;;;4.78;87.04;101078.88;4985293;58;1136231;-71
2021/04/17 02:18:26;;;;;;;22.20;5.80;;;;;;;4.74;86.95;101074.22;4985298;58;1136724;-72
2021/04/17 02:23:52;;;;;;;13.40;4.70;;;;;;;4.71;86.65;101079.62;4818453;59;1138666;-72
2021/04/17 02:29:18;;;;;;;12.03;4.97;;;;;;;4.74;86.82;101081.23;4862191;59;1138675;-71
2021/04/17 02:34:44;;;;;;;21.30;10.83;;;;;;;4.76;86.93;101080.70;4892687;59;1138747;-71
2021/04/17 02:40:10;;;;;;;21.07;7.90;;;;;;;4.75;86.85;101073.30;4891694;59;1138667;-72
2021/04/17 02:45:36;;;;;;;11.67;4.53;;;;;;;4.75;86.69;101067.21;4893830;59;1138700;-70
2021/04/17 02:51:01;;;;;;;11.88;4.65;;;;;;;4.64;86.44;101034.95;4894111;59;1138566;-71
2021/04/17 02:56:26;;;;;;;22.63;4.53;;;;;;;4.47;86.49;101039.63;4893986;59;1136373;-71
2021/04/17 03:01:52;;;;;;;12.97;6.23;;;;;;;4.41;86.49;101045.61;4893797;59;1138630;-71
2021/04/17 03:07:16;;;;;;;13.13;5.37;;;;;;;4.42;86.62;101043.39;4893727;59;1138869;-71
2021/04/17 03:12:42;;;;;;;18.40;6.47;;;;;;;4.45;86.62;101042.77;4893608;59;1136551;-71
2021/04/17 03:18:08;;;;;;;18.87;6.60;;;;;;;4.48;86.93;101070.14;4893969;59;1136764;-71
2021/04/17 03:23:33;;;;;;;18.87;6.78;;;;;;;4.37;86.37;101080.23;4894024;59;1136622;-71
2021/04/17 03:28:58;;;;;;;14.47;6.03;;;;;;;4.37;86.56;101080.23;4894387;59;1136451;-71
2021/04/17 03:34:24;;;;;;;15.23;7.10;;;;;;;4.39;86.33;101086.27;4893442;59;1138517;-71
2021/04/17 03:39:49;;;;;;;23.27;7.07;;;;;;;4.37;86.14;101084.16;4894066;58;1138779;-72
2021/04/17 03:45:16;;;;;;;23.42;7.95;;;;;;;4.31;86.26;101079.17;4893591;59;1136611;-71
2021/04/17 03:50:41;;;;;;;28.30;9.63;;;;;;;4.20;86.12;101083.57;4933217;58;1136734;-71
2021/04/17 03:56:07;;;;;;;30.02;10.30;;;;;;;4.13;86.26;101083.42;4933265;59;1138771;-70
2021/04/17 04:01:32;;;;;;;26.00;9.10;;;;;;;4.10;86.34;101095.81;4930215;59;1140584;-71
2021/04/17 04:06:58;;;;;;;23.03;6.57;;;;;;;4.14;86.64;101093.44;4933254;59;1138787;-71
2021/04/17 04:12:24;;;;;;;14.80;4.97;;;;;;;4.15;86.86;101083.36;4933191;59;1136248;-71
2021/04/17 04:17:49;;;;;;;15.17;5.90;;;;;;;4.13;87.02;101099.58;4933193;59;1136282;-71
2021/04/17 04:23:14;;;;;;;14.00;5.28;;;;;;;4.15;87.02;101099.06;4933058;59;1138296;-71
2021/04/17 04:28:40;;;;;;;17.73;5.47;;;;;;;4.12;87.20;101099.22;4933266;59;1136770;-71
2021/04/17 04:34:05;;;;;;;17.87;5.77;;;;;;;4.11;87.23;101086.59;4933233;59;1136711;-72
2021/04/17 04:39:31;;;;;;;18.50;5.00;;;;;;;4.12;87.34;101080.44;4933170;59;1138568;-71
2021/04/17 04:44:56;;;;;;;17.73;5.73;;;;;;;4.08;87.50;101092.40;4933023;59;1136663;-71
2021/04/17 04:50:21;;;;;;;28.93;9.40;;;;;;;4.10;87.64;101104.52;4933902;59;1138919;-71
2021/04/17 04:55:46;;;;;;;24.73;9.77;;;;;;;4.24;87.86;101098.24;4935199;58;1138525;-71
2021/04/17 05:01:12;;;;;;;22.35;8.23;;;;;;;4.28;87.91;101114.65;4935491;58;1136690;-72
2021/04/17 05:06:37;;;;;;;18.87;7.80;;;;;;;4.30;87.73;101106.73;4924670;58;1136464;-71
2021/04/17 05:12:03;;;;;;;24.37;9.13;;;;;;;4.32;87.67;101118.84;4857790;59;1139057;-71
2021/04/17 05:17:28;;;;;;;22.77;9.20;;;;;;;4.33;87.71;101123.17;4857731;59;1138802;-71
2021/04/17 05:22:54;;;;;;;24.90;7.70;;;;;;;4.37;87.85;101114.28;4857852;59;1136472;-71
2021/04/17 05:28:20;;;;;;;13.13;4.15;;;;;;;4.41;87.76;101117.17;4857934;58;1138662;-71
2021/04/17 05:33:45;;;;;;;13.60;5.93;;;;;;;4.41;87.51;101115.86;4857699;59;1138588;-72
2021/04/17 05:39:09;;;;;;;19.87;8.73;;;;;;;4.36;87.58;101106.48;4858081;59;1136451;-71
2021/04/17 05:44:35;;;;;;;17.53;6.77;;;;;;;4.31;87.59;101111.91;4858267;59;1138775;-73
2021/04/17 05:50:00;;;;;;;17.52;5.08;;;;;;;4.34;87.83;101115.71;4876295;59;1138764;-71
2021/04/17 05:55:26;;;;;;;10.97;5.43;;;;;;;4.33;87.98;101108.77;4925676;58;1136620;-72
2021/04/17 06:00:51;;;;;;;15.73;6.00;;;;;;;4.31;88.08;101101.44;4900244;59;1136638;-71
2021/04/17 06:06:19;;;;;;;20.23;7.80;;;;;;;4.30;88.15;101106.73;4906457;59;1138793;-71
2021/04/17 06:11:44;;;;;;;16.20;6.67;;;;;;;4.30;88.25;101105.42;4883297;58;1138788;-71
2021/04/17 06:17:10;;;;;;;15.13;5.58;;;;;;;4.35;88.47;101113.95;4847186;60;1138801;-72
2021/04/17 06:22:53;;;;;;;10.70;5.50;;;;;;;4.37;88.37;101106.88;4858634;59;1136306;-71
2021/04/17 06:28:20;;;;;;;39.70;17.27;;;;;;;4.37;88.47;101106.42;4858106;59;1138382;-71
2021/04/17 06:33:45;;;;;;;34.53;15.60;;;;;;;4.39;88.53;101099.36;4858228;59;1140450;-71
2021/04/17 06:39:11;;;;;;;17.73;7.03;;;;;;;4.43;88.96;101094.36;4858353;59;1139056;-71
2021/04/17 06:44:38;;;;;;;60.70;22.77;;;;;;;4.48;89.01;101088.93;4859810;59;1136452;-71
2021/04/17 06:50:05;;;;;;;51.35;18.07;;;;;;;4.50;89.24;101084.02;4867355;57;1141253;-72
2021/04/17 06:55:31;;;;;;;24.20;10.37;;;;;;;4.63;90.03;101084.79;4927051;59;1140711;-70
2021/04/17 07:00:56;;;;;;;149.27;52.50;;;;;;;4.67;89.70;101093.77;5054122;57;1140743;-72
2021/04/17 07:06:21;;;;;;;257.33;109.27;;;;;;;4.70;89.63;101084.92;5054145;57;1142790;-72
2021/04/17 07:11:47;;;;;;;18.63;8.27;;;;;;;4.74;90.30;101083.84;5053230;57;1144949;-70
2021/04/17 07:17:12;;;;;;;19.90;6.93;;;;;;;4.86;90.11;101083.33;5054425;57;1138710;-70
2021/04/17 07:22:39;;;;;;;37.77;11.67;;;;;;;4.93;89.91;101089.52;5054305;57;1138700;-71
2021/04/17 07:28:10;;;;;;;14.83;6.20;;;;;;;4.98;89.91;101090.63;5053414;57;1140559;-71
2021/04/17 07:33:34;;;;;;;61.43;20.37;;;;;;;5.06;89.97;101086.33;5054382;57;1138491;-73
2021/04/17 07:38:59;;;;;;;78.63;29.50;;;;;;;5.17;90.17;101090.64;5053027;57;1140562;-71
2021/04/17 07:44:26;;;;;;;;;;;;;;;5.19;90.04;101088.81;5057026;57;1140628;-72
2021/04/17 07:49:53;;;;;;;13.90;6.20;;;;;;;5.27;90.29;101087.52;5067556;57;973789;-73
2021/04/17 07:55:19;;;;;;;17.62;6.55;;;;;;;5.47;90.96;101080.49;4999021;57;1136511;-81
2021/04/17 08:00:45;;;;;;;11.23;6.70;;;;;;;5.72;91.20;101068.34;4958606;58;1138508;-80
2021/04/17 08:06:12;;;;;;;10.00;6.15;;;;;;;5.86;90.68;101058.02;4958785;58;1138591;-77
2021/04/17 08:11:37;;;;;;;19.10;6.93;;;;;;;6.25;91.64;101053.91;4958744;58;1138807;-77
2021/04/17 08:17:03;;;;;;;14.67;5.67;;;;;;;6.55;90.78;101054.94;4958935;58;1138524;-77
2021/04/17 08:22:29;;;;;;;14.97;5.60;;;;;;;6.74;89.74;101067.09;4959384;58;1138439;-74
2021/04/17 08:27:54;;;;;;;20.65;6.30;;;;;;;6.95;89.40;101092.25;4965208;57;1138647;-78
2021/04/17 08:33:21;;;;;;;10.05;4.70;;;;;;;7.17;89.73;101090.64;4957148;58;1138759;-78
2021/04/17 08:38:46;;;;;;;13.80;7.57;;;;;;;7.26;88.57;101077.83;4930504;58;1138541;-75
2021/04/17 08:44:39;;;;;;;15.53;6.00;;;;;;;7.35;89.10;101074.67;4933433;58;1138520;-78
2021/04/17 08:50:37;;;;;;;22.00;8.53;;;;;;;7.54;89.02;101082.88;4934444;58;1138507;-75
2021/04/17 08:56:03;;;;;;;17.67;8.33;;;;;;;7.67;88.47;101066.77;4934144;58;1140671;-78
2021/04/17 09:01:28;;;;;;;13.00;6.37;;;;;;;7.80;88.11;101060.32;4935102;58;1138288;-76
2021/04/17 09:06:57;;;;;;;14.47;6.42;;;;;;;7.99;88.37;101059.65;4933301;58;1138525;-79
2021/04/17 09:12:28;;;;;;;11.57;6.53;;;;;;;8.27;88.46;101058.40;4925779;58;1138732;-77
2021/04/17 09:17:53;;;;;;;16.10;7.17;;;;;;;8.40;87.11;101061.21;4907299;58;1138723;-75
2021/04/17 09:23:40;;;;;;;26.05;7.25;;;;;;;8.47;87.55;101062.52;4907600;58;1138492;-77
2021/04/17 09:29:22;;;;;;;20.77;6.60;;;;;;;8.56;87.23;101061.95;4907432;58;1138404;-76
2021/04/17 09:34:47;;;;;;;19.53;7.80;;;;;;;8.73;87.60;101055.19;4907428;59;1138459;-76
2021/04/17 09:40:14;;;;;;;11.48;5.12;;;;;;;8.89;86.12;101052.92;4907572;59;1138264;-77
2021/04/17 09:45:40;;;;;;;10.37;6.30;;;;;;;9.15;86.37;101056.12;4907380;59;1138994;-79
2021/04/17 09:51:07;;;;;;;18.07;6.53;;;;;;;9.31;85.87;101055.53;4907424;59;1147875;-79
2021/04/17 09:56:38;;;;;;;12.57;6.57;;;;;;;9.47;86.21;101047.47;4906331;59;1138853;-78
2021/04/17 10:02:05;;;;;;;8.38;5.92;;;;;;;9.71;85.63;101049.83;4913474;59;1138639;-79
2021/04/17 10:07:45;;;;;;;20.33;9.07;;;;;;;9.87;85.65;101053.63;4898841;59;1136626;-80
2021/04/17 10:13:10;;;;;;;18.75;8.68;;;;;;;9.97;84.92;101052.06;4907847;59;1138564;-79
2021/04/17 10:18:37;;;;;;;24.33;10.97;;;;;;;10.25;85.92;101044.47;4936612;58;1138502;-78
2021/04/17 10:24:36;;;;;;;25.93;9.20;;;;;;;10.45;85.00;101043.97;4906421;58;1142632;-75
2021/04/17 10:30:04;;;;;;;19.37;9.40;;;;;;;10.57;84.80;101044.91;4908283;58;1140450;-77
2021/04/17 10:35:34;;;;;;;24.20;11.60;;;;;;;10.65;84.01;101039.95;4906322;58;1140957;-76
2021/04/17 10:41:03;;;;;;;26.00;10.17;;;;;;;10.80;83.96;101034.06;4907873;58;1142501;-80
2021/04/17 10:46:28;;;;;;;23.23;8.63;;;;;;;10.98;84.34;101041.19;4908376;58;1142544;-78
2021/04/17 10:51:54;;;;;;;16.80;7.90;;;;;;;11.17;82.56;101033.61;4899023;59;1140558;-78
2021/04/17 10:57:19;;;;;;;14.85;8.93;;;;;;;11.44;84.61;101025.48;4908061;58;1140606;-79
2021/04/17 11:02:49;;;;;;;14.37;7.77;;;;;;;11.79;84.05;101035.66;4908215;58;1140651;-78
2021/04/17 11:08:22;;;;;;;10.43;6.22;;;;;;;12.06;82.22;101028.80;4906369;58;1140808;-77
2021/04/17 11:13:49;;;;;;;15.57;9.07;;;;;;;12.16;82.73;101034.23;4908549;58;1140582;-78
2021/04/17 11:19:34;;;;;;;19.07;9.00;;;;;;;12.22;82.14;101036.44;4906086;58;1140627;-79
2021/04/17 11:25:04;;;;;;;20.73;9.33;;;;;;;12.11;81.10;101036.38;4908016;58;1140572;-77
2021/04/17 11:30:30;;;;;;;25.47;9.67;;;;;;;12.04;81.37;101038.67;4907924;58;1140534;-76
2021/04/17 11:35:55;;;;;;;15.77;9.37;;;;;;;12.00;81.15;101032.38;4962699;57;1140738;-77
2021/04/17 11:41:21;;;;;;;20.88;11.08;;;;;;;11.94;81.66;101034.52;4986176;58;1140623;-77
2021/04/17 11:46:47;;;;;;;28.03;15.90;;;;;;;12.00;81.75;101040.33;4986195;58;1142483;-79
2021/04/17 11:52:12;;;;;;;21.45;9.88;;;;;;;12.03;81.24;101032.16;4986141;58;1142584;-75
2021/04/17 11:57:37;;;;;;;21.07;10.00;;;;;;;12.09;82.00;101030.34;4986435;58;1140549;-78
2021/04/17 12:03:03;;;;;;;23.53;11.03;;;;;;;12.20;81.51;101019.80;5031187;57;1142576;-78
2021/04/17 12:08:29;;;;;;;23.73;10.17;;;;;;;12.26;81.65;101027.26;4961364;58;1142934;-78
2021/04/17 12:13:55;;;;;;;21.37;9.13;;;;;;;12.35;80.83;101025.73;4949745;59;1142737;-77
2021/04/17 12:19:20;;;;;;;24.90;14.23;;;;;;;12.41;80.58;101029.22;4969082;59;1141065;-76
2021/04/17 12:24:45;;;;;;;32.97;13.23;;;;;;;12.47;80.57;101024.30;4949457;59;1142666;-80
2021/04/17 12:30:12;;;;;;;25.32;10.43;;;;;;;12.52;80.53;101018.16;4949209;59;1142979;-75
2021/04/17 12:35:39;;;;;;;12.27;8.93;;;;;;;12.61;80.41;101025.39;4949288;59;1142671;-75
2021/04/17 12:41:05;;;;;;;21.17;9.37;;;;;;;12.60;78.44;101023.70;4949406;59;1140579;-76
2021/04/17 12:46:30;;;;;;;19.00;11.07;;;;;;;12.57;79.10;101021.77;4949260;59;1140818;-75
2021/04/17 12:51:56;;;;;;;20.27;10.07;;;;;;;12.58;79.31;101022.12;4949077;59;1142822;-75
2021/04/17 12:57:22;;;;;;;17.90;10.45;;;;;;;12.62;79.33;101019.13;4948981;59;1142876;-76
2021/04/17 13:02:47;;;;;;;42.83;22.00;;;;;;;12.67;79.33;101019.62;4931334;59;1142822;-76
2021/04/17 13:08:12;;;;;;;19.27;10.95;;;;;;;12.71;78.56;101013.56;4906347;59;1142647;-75
2021/04/17 13:13:38;;;;;;;16.60;10.50;;;;;;;12.69;78.68;101018.98;4906333;58;1142678;-75
2021/04/17 13:19:04;;;;;;;13.90;8.97;;;;;;;12.68;78.84;101015.12;4906243;58;1142793;-77
2021/04/17 13:24:31;;;;;;;22.47;11.70;;;;;;;12.68;78.53;101017.78;4896022;58;1140501;-76
2021/04/17 13:29:56;;;;;;;52.20;25.13;;;;;;;12.68;78.27;101010.66;4893414;59;1142915;-76
2021/04/17 13:35:21;;;;;;;65.12;24.52;;;;;;;12.69;78.43;101000.89;4893646;59;1142681;-78
2021/04/17 13:40:47;;;;;;;84.73;28.07;;;;;;;12.77;78.65;101007.78;4893494;59;1142745;-76
2021/04/17 13:46:12;;;;;;;156.13;100.53;;;;;;;12.82;78.49;101004.77;4894961;59;1142653;-77
2021/04/17 13:51:36;;;;;;;32.03;15.80;;;;;;;12.87;77.56;101003.91;4894110;59;1147101;-76
2021/04/17 13:57:02;;;;;;;27.23;11.83;;;;;;;12.93;77.55;101011.39;4892800;59;1142536;-77
2021/04/17 14:02:27;;;;;;;17.57;10.33;;;;;;;13.02;77.97;101006.66;4893446;59;1143019;-77
2021/04/17 14:07:52;;;;;;;16.03;11.10;;;;;;;13.33;77.62;101003.26;4893302;59;1142430;-77
2021/04/17 14:13:19;;;;;;;19.65;10.25;;;;;;;13.52;77.31;100999.10;4894131;59;1143064;-76
2021/04/17 14:18:43;;;;;;;29.93;17.27;;;;;;;13.60;77.07;101007.27;4895568;59;1142625;-77
2021/04/17 14:24:10;;;;;;;18.77;10.60;;;;;;;13.57;76.37;101005.73;4895019;59;1144232;-76
2021/04/17 14:29:35;;;;;;;22.47;11.63;;;;;;;13.67;75.87;101007.14;4907178;59;1142704;-77
2021/04/17 14:35:00;;;;;;;12.93;9.63;;;;;;;13.85;76.18;100996.80;4907254;58;1142776;-77
2021/04/17 14:40:26;;;;;;;17.15;10.90;;;;;;;14.09;76.01;100992.91;4907564;59;1140918;-77
2021/04/17 14:45:52;;;;;;;17.95;10.60;;;;;;;14.15;74.62;100990.70;4907578;58;1142783;-78
2021/04/17 14:51:18;;;;;;;13.53;10.35;;;;;;;14.25;74.00;100992.92;4907841;58;1142901;-79
2021/04/17 14:56:44;;;;;;;22.37;11.83;;;;;;;14.20;73.46;100992.50;4907507;58;1142842;-78
2021/04/17 15:02:10;;;;;;;13.43;9.70;;;;;;;14.11;72.28;100994.11;4907037;58;1142943;-76
2021/04/17 15:07:36;;;;;;;47.97;20.63;;;;;;;13.95;72.21;100997.22;4945084;58;1140824;-79
2021/04/17 15:13:01;;;;;;;46.10;23.90;;;;;;;13.85;72.37;100994.98;4961112;58;1142831;-76
2021/04/17 15:18:29;;;;;;;69.72;33.33;;;;;;;13.78;71.14;100990.29;4961399;58;1142672;-76
2021/04/17 15:23:56;;;;;;;19.33;13.00;;;;;;;13.86;71.14;100997.16;4960877;58;1142707;-79
2021/04/17 15:29:22;;;;;;;63.13;31.20;;;;;;;13.93;71.97;100995.66;4961454;58;1142772;-77
2021/04/17 15:34:49;;;;;;;25.40;15.30;;;;;;;13.99;71.77;100994.66;4961154;58;1142761;-78
2021/04/17 15:40:15;;;;;;;21.07;13.40;;;;;;;14.10;70.63;100995.08;4962655;57;1142720;-78
2021/04/17 15:45:40;;;;;;;29.03;16.20;;;;;;;14.04;70.39;101003.59;4961978;58;1142707;-77
2021/04/17 15:51:06;;;;;;;27.13;16.63;;;;;;;13.94;69.55;101002.66;4961996;58;1142429;-78
2021/04/17 15:56:32;;;;;;;35.77;18.53;;;;;;;13.79;71.27;101003.94;4961391;57;1143169;-78
2021/04/17 16:19:06;;;;;;;40.90;22.10;;;;;;;13.57;71.18;101027.00;4907761;58;1142696;-77
2021/04/17 16:24:32;;;;;;;34.37;20.00;;;;;;;13.42;71.65;101025.59;4907535;58;1142686;-77
2021/04/17 16:29:57;;;;;;;36.23;23.03;;;;;;;13.27;71.21;101026.84;4907505;58;1142880;-75
2021/04/17 16:35:26;;;;;;;79.95;44.83;;;;;;;13.16;71.64;101038.78;4907603;58;1142976;-76
2021/04/17 16:40:51;;;;;;;38.43;22.90;;;;;;;13.10;72.13;101031.30;4907574;58;1142875;-75
2021/04/17 16:46:17;;;;;;;38.55;25.77;;;;;;;13.05;72.18;101040.95;4907628;58;1142648;-77
2021/04/17 16:51:43;;;;;;;63.43;40.53;;;;;;;12.96;72.53;101038.55;4907509;58;1142851;-74
2021/04/17 16:57:09;;;;;;;58.00;31.60;;;;;;;12.89;72.81;101053.27;4906992;58;1142853;-77
2021/04/17 17:02:35;;;;;;;49.40;28.03;;;;;;;12.83;72.83;101052.41;4907026;58;1142658;-76
2021/04/17 17:08:00;;;;;;;38.67;21.20;;;;;;;12.77;72.82;101052.06;4907375;58;1142684;-75
2021/04/17 17:13:25;;;;;;;43.23;25.23;;;;;;;12.74;73.28;101048.31;4907492;58;1142674;-77
2021/04/17 17:18:49;;;;;;;48.63;28.17;;;;;;;12.71;73.54;101057.83;4907445;58;1142728;-77
2021/04/17 17:24:15;;;;;;;40.20;25.70;;;;;;;12.66;73.67;101059.54;4907674;58;1151021;-75
2021/04/17 17:29:40;;;;;;;53.60;31.40;;;;;;;12.58;73.70;101069.89;4907282;58;1142447;-75
2021/04/17 17:35:06;;;;;;;61.67;30.87;;;;;;;12.51;73.64;101080.14;4907399;58;1142451;-74
2021/04/17 17:40:33;;;;;;;63.83;34.67;;;;;;;12.41;73.66;101079.14;4930973;58;1142935;-77
2021/04/17 17:45:57;;;;;;;53.80;28.37;;;;;;;12.30;73.90;101092.38;4958966;58;1142812;-74
2021/04/17 17:51:23;;;;;;;41.55;25.65;;;;;;;12.26;74.34;101093.08;4960571;58;1142913;-76
2021/04/17 17:56:48;;;;;;;89.67;53.70;;;;;;;12.20;74.47;101097.55;4955159;57;1142884;-75
2021/04/17 18:02:14;;;;;;;305.63;140.33;;;;;;;12.14;74.53;101079.91;4957516;58;1149156;-75
2021/04/17 18:07:40;;;;;;;69.03;34.40;;;;;;;12.00;74.35;101088.90;4958538;57;1147566;-76
2021/04/17 18:13:07;;;;;;;164.97;77.03;;;;;;;11.98;74.63;101095.63;4964978;58;1142878;-75
2021/04/17 18:18:32;;;;;;;89.27;47.63;;;;;;;11.95;74.65;101101.16;4958109;58;1144897;-77
2021/04/17 18:23:57;;;;;;;99.27;50.07;;;;;;;11.79;74.70;101109.02;4957399;58;1142885;-75
2021/04/17 18:29:22;;;;;;;98.25;45.63;;;;;;;11.68;74.72;101118.21;4955897;58;1142774;-76
2021/04/17 18:34:48;;;;;;;92.80;37.87;;;;;;;11.44;74.42;101121.69;4959491;58;1142914;-78
2021/04/17 18:40:14;;;;;;;99.67;46.05;;;;;;;11.34;74.92;101123.28;4947824;58;1142922;-76
2021/04/17 18:45:41;;;;;;;101.73;44.67;;;;;;;11.29;75.27;101122.78;4948832;57;1143026;-76
2021/04/17 18:51:07;;;;;;;89.43;42.43;;;;;;;11.35;75.47;101132.92;4958059;57;1145121;-76
2021/04/17 18:56:33;;;;;;;88.80;41.57;;;;;;;11.27;75.03;101131.30;4957245;58;1142740;-77
2021/04/17 19:01:59;;;;;;;88.87;41.63;;;;;;;11.13;74.71;101142.87;4957908;58;1142994;-76
2021/04/17 19:07:24;;;;;;;86.65;41.28;;;;;;;10.81;74.53;101134.51;4948910;58;1142630;-75
2021/04/17 19:12:49;;;;;;;111.63;51.43;;;;;;;10.62;74.84;101138.51;4959689;58;1142546;-73
2021/04/17 19:18:14;;;;;;;235.43;102.20;;;;;;;10.59;75.40;101143.52;4988213;58;1154144;-75
2021/04/17 19:23:39;;;;;;;141.17;68.43;;;;;;;10.48;75.53;101146.05;4986259;57;1146908;-74
2021/04/17 19:29:05;;;;;;;185.60;85.40;;;;;;;10.50;76.08;101146.80;4984922;58;1145017;-75
2021/04/17 19:34:31;;;;;;;181.10;78.78;;;;;;;10.48;76.15;101149.55;4987846;58;1144995;-74
2021/04/17 19:39:57;;;;;;;151.53;61.07;;;;;;;10.45;75.63;101145.78;4998739;58;1144524;-72
2021/04/17 19:45:24;;;;;;;163.77;70.00;;;;;;;10.47;76.06;101156.26;4992416;58;1144756;-74
2021/04/17 19:50:49;;;;;;;215.07;92.93;;;;;;;10.45;75.78;101156.36;4969210;58;1145278;-74
2021/04/17 19:56:16;;;;;;;201.50;87.25;;;;;;;10.38;76.26;101144.98;4957609;57;1145508;-74
2021/04/17 20:01:41;;;;;;;162.37;73.67;;;;;;;10.34;76.06;101153.59;4955046;58;1144769;-74
2021/04/17 20:07:06;;;;;;;168.70;77.53;;;;;;;10.15;74.99;101144.66;4962615;58;1144737;-75
2021/04/17 20:12:32;;;;;;;249.55;111.20;;;;;;;9.87;75.49;101157.98;5000436;58;1144990;-74
2021/04/17 20:17:57;;;;;;;449.70;200.07;;;;;;;9.80;75.70;101161.48;5043790;57;1144758;-73
2021/04/17 20:23:23;;;;;;;447.02;186.37;;;;;;;9.77;76.38;101159.06;5059168;57;1144981;-74
2021/04/17 20:28:48;;;;;;;369.40;143.40;;;;;;;9.70;76.21;101163.50;5052029;57;1144740;-74
2021/04/17 20:34:14;;;;;;;316.07;124.53;;;;;;;9.63;75.44;101151.14;5058941;57;1144740;-73
2021/04/17 20:39:40;;;;;;;378.60;152.20;;;;;;;9.63;75.44;101151.14;5060483;57;1144513;-76
2021/04/17 20:45:07;;;;;;;308.37;130.63;;;;;;;9.45;75.56;101161.09;5059403;57;1144979;-76
2021/04/17 20:50:32;;;;;;;369.43;165.88;;;;;;;9.25;76.08;101157.52;5056938;57;1145062;-75
2021/04/17 20:55:57;;;;;;;377.37;162.83;;;;;;;9.27;76.94;101164.03;5093232;57;1144888;-79
2021/04/17 21:01:23;;;;;;;353.62;155.50;;;;;;;9.37;77.24;101165.14;5096320;57;1144794;-74
2021/04/17 21:06:49;;;;;;;190.60;83.80;;;;;;;9.45;77.04;101175.62;5095897;57;1144774;-76
2021/04/17 21:12:14;;;;;;;75.47;39.07;;;;;;;9.40;76.75;101180.33;5096389;57;1142945;-76
2021/04/17 21:17:40;;;;;;;53.57;32.43;;;;;;;9.33;77.08;101186.06;5045234;57;1140603;-77
2021/04/17 21:23:05;;;;;;;49.23;27.27;;;;;;;9.27;77.37;101174.11;5002828;57;1140630;-77
2021/04/17 21:28:34;;;;;;;111.30;48.80;;;;;;;9.14;77.02;101162.63;4974733;57;1140449;-76
2021/04/17 21:33:59;;;;;;;107.33;49.57;;;;;;;8.93;77.03;101163.45;4967305;58;1143055;-78
2021/04/17 21:39:24;;;;;;;113.13;53.17;;;;;;;8.72;76.96;101155.48;4938661;58;1143061;-76
2021/04/17 21:44:50;;;;;;;134.43;63.03;;;;;;;8.49;77.52;101158.66;4824486;59;1142779;-76
2021/04/17 21:50:15;;;;;;;175.07;77.20;;;;;;;8.37;77.95;101167.66;4717285;61;1142718;-76
2021/04/17 21:55:41;;;;;;;168.63;74.80;;;;;;;8.48;78.54;101163.55;4717212;61;1142968;-76
2021/04/17 22:01:07;;;;;;;159.43;75.70;;;;;;;8.49;78.42;101155.55;4716844;61;1142699;-76
2021/04/17 22:06:32;;;;;;;163.43;76.82;;;;;;;8.51;78.63;101159.42;4717368;61;1142804;-74
2021/04/17 22:11:57;;;;;;;137.30;70.30;;;;;;;8.68;79.61;101165.86;4860805;59;1142711;-76
2021/04/17 22:17:22;;;;;;;115.35;55.43;;;;;;;8.83;79.59;101157.50;4783701;60;1142872;-77
2021/04/17 22:22:48;;;;;;;91.60;48.23;;;;;;;8.71;78.73;101137.50;4787562;60;1143134;-78
2021/04/17 22:28:13;;;;;;;98.87;47.63;;;;;;;8.61;78.82;101146.91;4741108;61;1140656;-77
2021/04/17 22:33:39;;;;;;;83.27;41.30;;;;;;;8.61;78.87;101143.42;4787908;60;1140932;-77
2021/04/17 22:39:05;;;;;;;184.20;92.77;;;;;;;8.53;78.83;101135.13;4740980;61;1140417;-77
2021/04/17 22:44:31;;;;;;;155.20;79.58;;;;;;;8.48;79.10;101128.80;4741929;61;1142683;-78
2021/04/17 22:49:56;;;;;;;239.50;105.03;;;;;;;8.44;79.59;101132.55;4741068;61;1142627;-78
2021/04/17 22:55:22;;;;;;;158.97;74.43;;;;;;;8.44;79.70;101132.08;4788293;60;1145089;-77
2021/04/17 23:00:48;;;;;;;118.37;58.53;;;;;;;8.53;80.03;101145.21;4740861;61;1142854;-76
2021/04/17 23:06:14;;;;;;;109.60;55.93;;;;;;;8.59;80.00;101125.05;4788480;60;1142745;-77
2021/04/17 23:11:39;;;;;;;115.62;57.88;;;;;;;8.69;80.51;101136.77;4818820;60;1142882;-76
2021/04/17 23:17:05;;;;;;;112.50;58.47;;;;;;;8.80;80.41;101130.84;4819070;60;1142634;-78
2021/04/17 23:22:30;;;;;;;104.38;55.95;;;;;;;8.73;80.13;101136.94;4819123;60;1142729;-78
2021/04/17 23:27:55;;;;;;;103.23;53.43;;;;;;;8.78;80.78;101130.93;4816927;60;1142703;-78
2021/04/17 23:33:21;;;;;;;101.43;52.47;;;;;;;8.74;80.07;101122.81;4816954;60;1142602;-76
2021/04/17 23:38:46;;;;;;;85.27;43.03;;;;;;;8.71;80.16;101115.55;4816864;60;1142697;-76
2021/04/17 23:44:14;;;;;;;77.60;42.47;;;;;;;8.69;80.32;101114.36;4817205;60;1140585;-77
2021/04/17 23:49:41;;;;;;;67.10;36.40;;;;;;;8.62;80.66;101116.12;4817183;60;1140424;-78
2021/04/17 23:55:08;;;;;;;60.20;34.97;;;;;;;8.58;80.90;101117.23;4816994;60;1140872;-78
